Time;durP1;ratioP1;P1;durP2;ratioP2;P2;SDS_P1;SDS_P2;PMS_P1;PMS_P2;Temp;Humidity;BMP_temperature;BMP_pressure;BME280_temperature;BME280_humidity;BME280_pressure;Samples;Min_cycle;Max_cycle;Signal;HPM_P1;HPM_P2
2022/04/30 00:01:26;;;;;;;27.48;19.10;;;;;;;13.74;66.54;101283.09;4114138;28;20731;-69
2022/04/30 00:03:30;;;;;;;32.00;21.60;;;;;;;13.78;66.57;101275.34;4115008;28;20590;-68
2022/04/30 00:05:34;;;;;;;29.77;19.30;;;;;;;13.73;66.10;101276.13;4111677;28;20085;-68
2022/04/30 00:07:40;;;;;;;30.13;21.05;;;;;;;13.64;67.00;101278.59;4113263;28;20286;-69
2022/04/30 00:09:45;;;;;;;27.65;20.35;;;;;;;13.79;66.35;101278.84;4113419;28;20070;-68
2022/04/30 00:11:48;;;;;;;27.80;19.55;;;;;;;13.75;66.33;101277.91;4114917;28;20494;-69
2022/04/30 00:13:51;;;;;;;32.40;20.70;;;;;;;13.83;65.67;101272.78;4113936;28;20490;-68
2022/04/30 00:15:54;;;;;;;26.65;20.00;;;;;;;13.81;65.49;101273.63;4113852;28;20030;-68
2022/04/30 00:17:56;;;;;;;33.15;21.25;;;;;;;13.68;66.00;101268.25;4113666;28;20038;-68
2022/04/30 00:19:59;;;;;;;31.27;19.13;;;;;;;13.55;66.27;101263.66;4115227;28;20046;-68
2022/04/30 00:22:03;;;;;;;26.20;21.25;;;;;;;13.51;67.15;101265.38;4113958;28;20045;-69
2022/04/30 00:24:08;;;;;;;32.08;21.55;;;;;;;13.52;66.99;101272.34;4113926;28;20058;-68
2022/04/30 00:26:11;;;;;;;;;;;;;;;13.60;67.09;101270.72;4113991;28;20425;-69
2022/04/30 00:28:14;;;;;;;27.65;19.67;;;;;;;13.55;67.17;101267.19;4114035;28;19926;-69
2022/04/30 00:30:17;;;;;;;29.52;21.58;;;;;;;13.58;67.40;101264.59;4111798;28;20035;-68
2022/04/30 00:32:21;;;;;;;31.40;22.23;;;;;;;13.62;67.67;101255.06;4109162;28;20047;-68
2022/04/30 00:34:24;;;;;;;31.47;21.40;;;;;;;13.70;67.41;101252.59;4113353;28;20034;-68
2022/04/30 00:36:28;;;;;;;38.10;25.42;;;;;;;13.73;67.37;101247.41;4113960;28;20290;-68
2022/04/30 00:38:31;;;;;;;34.95;22.45;;;;;;;13.74;67.47;101251.75;4113353;28;20050;-68
2022/04/30 00:40:35;;;;;;;35.65;23.80;;;;;;;13.83;67.12;101251.88;4111379;28;20061;-68
2022/04/30 00:42:38;;;;;;;37.63;24.58;;;;;;;13.92;66.43;101246.78;4112267;28;20042;-68
2022/04/30 00:44:43;;;;;;;37.35;24.00;;;;;;;13.85;66.36;101250.16;4113843;28;20066;-69
2022/04/30 00:46:47;;;;;;;37.80;23.87;;;;;;;13.73;66.40;101247.41;4114551;28;20031;-69
2022/04/30 00:48:51;;;;;;;32.47;22.23;;;;;;;13.77;65.70;101236.13;4113682;28;20301;-69
2022/04/30 00:50:54;;;;;;;31.03;22.03;;;;;;;13.49;66.69;101246.19;4111849;28;20090;-68
2022/04/30 00:52:59;;;;;;;36.90;23.25;;;;;;;13.48;67.04;101239.19;4114312;28;20313;-68
2022/04/30 00:55:03;;;;;;;35.28;23.55;;;;;;;13.58;66.46;101246.31;4114632;28;20053;-69
2022/04/30 00:57:11;;;;;;;31.63;23.60;;;;;;;13.41;67.19;101237.34;4113283;28;20038;-68
2022/04/30 00:59:17;;;;;;;35.47;22.67;;;;;;;13.44;66.59;101237.41;4112878;28;20454;-69
2022/04/30 01:01:21;;;;;;;33.63;23.38;;;;;;;13.36;66.91;101237.28;4112451;28;20034;-69
2022/04/30 01:03:44;;;;;;;34.63;24.27;;;;;;;13.32;66.69;101238.06;4113464;28;20097;-68
2022/04/30 01:06:06;;;;;;;42.53;24.90;;;;;;;13.19;66.58;101239.59;4114518;28;20130;-70
2022/04/30 01:08:28;;;;;;;34.50;22.83;;;;;;;13.07;66.84;101240.28;4112933;28;20046;-69
2022/04/30 01:10:49;;;;;;;33.15;23.20;;;;;;;13.14;66.69;101238.66;4111519;28;20053;-68
2022/04/30 01:13:13;;;;;;;32.72;23.35;;;;;;;13.06;66.93;101242.88;4113661;28;20050;-68
2022/04/30 01:15:35;;;;;;;30.30;21.35;;;;;;;12.93;67.63;101234.81;4115116;28;20085;-68
2022/04/30 01:17:57;;;;;;;31.92;23.02;;;;;;;13.00;66.89;101245.38;4113021;28;20154;-68
2022/04/30 01:20:19;;;;;;;31.02;23.13;;;;;;;12.93;67.39;101237.41;4104976;28;20053;-68
2022/04/30 01:23:00;;;;;;;30.45;22.17;;;;;;;12.75;68.20;101252.78;4109353;28;20066;-68
2022/04/30 01:25:22;;;;;;;32.05;21.95;;;;;;;12.72;68.53;101244.91;4110109;28;20093;-68
2022/04/30 01:27:44;;;;;;;36.08;24.50;;;;;;;12.85;68.15;101241.66;4113403;28;20057;-68
2022/04/30 01:30:06;;;;;;;31.17;22.95;;;;;;;12.85;68.03;101240.75;4112195;28;20057;-67
2022/04/30 01:37:51;;;;;;;35.58;24.85;;;;;;;12.72;68.61;101229.25;4112646;28;20053;-69
2022/04/30 01:40:13;;;;;;;40.45;25.83;;;;;;;12.88;68.49;101240.84;4112152;28;20054;-69
2022/04/30 01:42:36;;;;;;;34.35;23.05;;;;;;;12.66;69.21;101227.41;4114179;28;20105;-69
2022/04/30 01:44:59;;;;;;;33.45;23.30;;;;;;;12.57;69.92;101241.16;4111624;28;20054;-69
2022/04/30 01:47:23;;;;;;;33.72;24.50;;;;;;;12.54;70.05;101224.56;4109925;28;20445;-68
2022/04/30 01:49:44;;;;;;;33.65;23.17;;;;;;;12.54;69.77;101235.88;4113044;28;20057;-68
2022/04/30 01:52:07;;;;;;;36.67;26.67;;;;;;;12.49;70.12;101232.28;4115092;28;20098;-68
2022/04/30 01:54:30;;;;;;;37.10;24.95;;;;;;;12.53;70.68;101239.34;4112154;28;20050;-68
2022/04/30 01:56:52;;;;;;;35.88;25.80;;;;;;;12.45;70.74;101227.88;4115245;28;20045;-69
2022/04/30 01:59:14;;;;;;;36.10;25.23;;;;;;;12.39;71.54;101230.38;4116054;28;20483;-69
2022/04/30 02:01:39;;;;;;;35.78;25.38;;;;;;;12.56;70.10;101234.16;4110388;28;20058;-69
2022/04/30 02:04:02;;;;;;;34.92;25.25;;;;;;;12.54;70.47;101233.28;4114751;28;20437;-69
2022/04/30 02:06:24;;;;;;;36.53;26.52;;;;;;;12.57;70.10;101235.94;4109884;28;20049;-69
2022/04/30 02:08:46;;;;;;;39.50;25.50;;;;;;;12.70;69.15;101236.16;4116740;28;20130;-69
2022/04/30 02:11:11;;;;;;;33.45;25.00;;;;;;;12.62;69.31;101228.19;4116784;28;20101;-68
2022/04/30 02:13:35;;;;;;;34.65;24.20;;;;;;;12.47;69.69;101227.88;4110681;28;20050;-69
2022/04/30 02:15:57;;;;;;;34.80;25.17;;;;;;;12.32;70.13;101213.72;4115356;28;20042;-68
2022/04/30 02:18:20;;;;;;;42.58;25.42;;;;;;;12.31;70.17;101221.50;4116473;28;20121;-68
2022/04/30 02:20:45;;;;;;;33.38;24.30;;;;;;;12.19;70.78;101212.63;4116467;28;20350;-70
2022/04/30 02:23:09;;;;;;;39.17;26.30;;;;;;;12.24;71.25;101204.88;4116975;28;20109;-68
2022/04/30 02:25:31;;;;;;;40.00;26.65;;;;;;;12.29;71.22;101212.78;4109553;28;20147;-68
2022/04/30 02:27:55;;;;;;;38.47;26.50;;;;;;;12.13;70.79;101204.66;4112616;28;20082;-70
2022/04/30 02:30:18;;;;;;;35.67;25.90;;;;;;;12.05;71.67;101207.13;4116228;28;20053;-70
2022/04/30 02:32:41;;;;;;;35.22;26.23;;;;;;;12.05;71.83;101208.84;4124311;28;20561;-70
2022/04/30 02:35:03;;;;;;;39.83;27.58;;;;;;;11.99;72.45;101206.13;4117255;28;20050;-69
2022/04/30 02:37:24;;;;;;;37.58;25.23;;;;;;;11.97;72.30;101203.50;4115818;28;20058;-69
2022/04/30 02:39:46;;;;;;;36.03;26.23;;;;;;;12.10;72.16;101198.53;4113173;28;20065;-69
2022/04/30 02:42:08;;;;;;;37.95;23.95;;;;;;;11.98;72.19;101181.78;4115003;28;20054;-69
2022/04/30 02:44:32;;;;;;;41.13;26.67;;;;;;;12.13;71.95;101191.63;4116823;28;20126;-70
2022/04/30 02:46:54;;;;;;;36.25;25.50;;;;;;;12.04;71.58;101175.81;4113930;28;20133;-69
2022/04/30 02:49:17;;;;;;;33.17;24.77;;;;;;;11.96;72.46;101182.59;4115585;28;20560;-70
2022/04/30 02:51:38;;;;;;;33.95;25.27;;;;;;;12.04;72.41;101170.59;4110856;28;20113;-70
2022/04/30 02:53:59;;;;;;;29.35;22.30;;;;;;;12.03;72.17;101169.72;4115971;28;20105;-70
2022/04/30 02:56:21;;;;;;;34.20;23.55;;;;;;;11.95;71.44;101170.44;4113179;28;20050;-70
2022/04/30 03:01:23;;;;;;;33.63;23.42;;;;;;;11.95;71.59;101160.00;4113238;28;20097;-71
2022/04/30 03:04:03;;;;;;;34.13;22.98;;;;;;;11.74;73.17;101163.91;4114471;28;20074;-69
2022/04/30 03:06:24;;;;;;;33.30;23.50;;;;;;;11.82;73.07;101164.91;4112814;28;20093;-71
2022/04/30 03:08:47;;;;;;;30.95;23.20;;;;;;;11.75;72.98;101168.25;4115063;28;20074;-70
2022/04/30 03:11:09;;;;;;;31.10;23.38;;;;;;;11.78;72.94;101163.09;4115531;28;20174;-71
2022/04/30 03:13:31;;;;;;;35.63;23.65;;;;;;;11.88;72.92;101164.16;4114242;28;20053;-70
2022/04/30 03:15:54;;;;;;;30.58;23.20;;;;;;;11.75;72.81;101160.44;4114923;28;20097;-70
2022/04/30 03:23:36;;;;;;;31.08;22.60;;;;;;;11.77;72.83;101166.56;4109011;28;20084;-70
2022/04/30 03:25:58;;;;;;;28.63;22.25;;;;;;;11.66;73.23;101168.06;4114824;28;20061;-70
2022/04/30 03:28:19;;;;;;;27.10;19.92;;;;;;;11.78;72.38;101170.91;4108788;28;20046;-70
2022/04/30 03:30:40;;;;;;;27.25;20.13;;;;;;;11.85;72.43;101174.53;4114449;28;20157;-70
2022/04/30 03:33:02;;;;;;;30.90;21.92;;;;;;;11.44;72.90;101177.13;4111433;28;20580;-70
2022/04/30 03:35:25;;;;;;;29.38;19.30;;;;;;;11.44;74.36;101174.53;4108332;28;20426;-70
2022/04/30 03:37:47;;;;;;;27.20;18.05;;;;;;;11.64;72.79;101175.84;4115897;28;20318;-71
2022/04/30 03:40:10;;;;;;;23.95;17.25;;;;;;;11.61;72.25;101167.97;4115142;28;20098;-72
2022/04/30 03:42:33;;;;;;;25.15;18.33;;;;;;;11.48;73.50;101176.38;4112453;28;20469;-70
2022/04/30 03:44:55;;;;;;;25.33;17.40;;;;;;;11.42;72.74;101173.59;4112616;28;20058;-70
2022/04/30 03:47:16;;;;;;;19.63;14.75;;;;;;;11.27;73.60;101172.44;4113546;28;20138;-70
2022/04/30 03:49:38;;;;;;;25.75;18.38;;;;;;;11.30;74.33;101179.41;4114845;28;20593;-69
2022/04/30 03:52:00;;;;;;;24.08;16.92;;;;;;;11.40;74.09;101176.19;4113943;28;20058;-70
2022/04/30 03:54:22;;;;;;;23.02;17.10;;;;;;;11.45;73.80;101178.91;4115006;28;20146;-70
2022/04/30 03:56:43;;;;;;;20.67;15.57;;;;;;;11.44;73.01;101182.34;4115466;28;20054;-70
2022/04/30 03:59:05;;;;;;;20.85;17.33;;;;;;;11.47;73.03;101177.19;4115430;28;20053;-69
2022/04/30 04:01:26;;;;;;;22.27;16.40;;;;;;;11.42;73.79;101176.22;4112622;28;20524;-69
2022/04/30 04:03:50;;;;;;;22.83;18.10;;;;;;;11.46;73.56;101184.16;4114452;28;20083;-69
2022/04/30 04:06:13;;;;;;;25.80;16.83;;;;;;;11.50;73.05;101180.75;4114693;28;20437;-69
2022/04/30 04:08:36;;;;;;;20.08;16.98;;;;;;;11.45;73.70;101181.50;4109262;28;20054;-70
2022/04/30 04:10:57;;;;;;;22.25;16.45;;;;;;;11.43;72.95;101180.56;4112595;28;20177;-70
2022/04/30 04:18:37;;;;;;;19.35;15.75;;;;;;;11.42;72.85;101186.63;4108673;28;20061;-69
2022/04/30 04:20:59;;;;;;;23.67;17.05;;;;;;;11.39;73.65;101186.56;4113064;28;20081;-69
2022/04/30 04:23:20;;;;;;;23.52;17.73;;;;;;;11.46;73.42;101191.06;4113909;28;20097;-69
2022/04/30 04:26:00;;;;;;;23.20;16.63;;;;;;;11.46;73.23;101186.75;4114801;28;20090;-69
2022/04/30 04:28:21;;;;;;;23.67;16.92;;;;;;;11.44;72.66;101184.94;4107244;28;20057;-69
2022/04/30 04:30:43;;;;;;;25.10;17.38;;;;;;;11.51;72.02;101195.53;4113001;28;20057;-69
2022/04/30 04:33:04;;;;;;;24.55;17.63;;;;;;;11.44;72.50;101197.97;4114391;28;20078;-69
2022/04/30 04:35:27;;;;;;;24.40;18.63;;;;;;;11.36;72.67;101195.19;4112108;28;20057;-68
2022/04/30 04:37:48;;;;;;;20.25;16.40;;;;;;;11.34;72.83;101202.06;4113088;28;20517;-70
2022/04/30 04:40:11;;;;;;;27.27;18.00;;;;;;;11.39;72.10;101197.88;4113356;28;20053;-68
2022/04/30 04:42:34;;;;;;;26.15;18.88;;;;;;;11.35;72.32;101191.69;4113947;28;20077;-68
2022/04/30 04:44:55;;;;;;;26.23;18.63;;;;;;;11.25;73.65;101202.75;4113865;28;20093;-68
2022/04/30 04:47:17;;;;;;;25.08;18.88;;;;;;;11.31;73.14;101191.59;4113839;28;20046;-69
2022/04/30 04:49:38;;;;;;;28.20;19.73;;;;;;;11.26;73.74;101190.63;4112401;28;20062;-69
2022/04/30 04:52:01;;;;;;;27.70;18.85;;;;;;;11.18;74.06;101198.22;4113473;28;20098;-69
2022/04/30 04:54:22;;;;;;;27.92;19.88;;;;;;;11.21;74.14;101192.22;4114770;28;20413;-68
2022/04/30 04:56:44;;;;;;;23.65;18.65;;;;;;;11.13;74.70;101195.53;4114767;28;20079;-69
2022/04/30 04:59:08;;;;;;;24.23;18.95;;;;;;;11.23;73.88;101196.63;4114699;28;20074;-69
2022/04/30 05:01:29;;;;;;;24.48;18.70;;;;;;;11.25;73.99;101192.34;4109671;28;20093;-69
2022/04/30 05:03:51;;;;;;;21.70;18.13;;;;;;;11.22;73.80;101207.88;4110996;28;20046;-69
2022/04/30 05:06:12;;;;;;;27.42;19.42;;;;;;;11.26;74.10;101207.13;4114105;28;20058;-69
2022/04/30 05:08:34;;;;;;;29.05;19.70;;;;;;;11.16;73.83;101207.75;4109066;28;20117;-69
2022/04/30 05:10:55;;;;;;;21.35;17.00;;;;;;;11.02;74.39;101209.13;4112190;28;20560;-68
2022/04/30 05:13:17;;;;;;;28.83;20.30;;;;;;;11.05;75.18;101220.47;4112062;28;20117;-68
2022/04/30 05:15:40;;;;;;;26.80;19.63;;;;;;;11.13;74.45;101220.69;4112269;28;20130;-69
2022/04/30 05:18:02;;;;;;;27.92;19.90;;;;;;;11.22;74.30;101220.91;4114730;28;20090;-69
2022/04/30 05:20:25;;;;;;;25.63;18.17;;;;;;;11.16;74.98;101226.81;4107710;28;20054;-68
2022/04/30 05:23:02;;;;;;;31.48;21.27;;;;;;;11.24;74.90;101233.94;4113524;28;20062;-68
2022/04/30 05:25:24;;;;;;;32.17;21.65;;;;;;;11.39;73.89;101236.91;4107248;28;20062;-68
2022/04/30 05:27:45;;;;;;;26.15;21.55;;;;;;;11.31;74.14;101241.94;4113753;28;20065;-69
2022/04/30 05:30:08;;;;;;;25.90;21.08;;;;;;;11.31;73.89;101239.31;4117355;28;20531;-69
2022/04/30 05:32:31;;;;;;;30.30;20.42;;;;;;;11.36;73.61;101242.06;4109251;28;20461;-69
2022/04/30 05:34:52;;;;;;;30.33;22.00;;;;;;;11.33;73.92;101244.56;4123672;28;20574;-69
2022/04/30 05:37:14;;;;;;;27.88;19.92;;;;;;;11.48;73.69;101244.94;4117194;28;20053;-69
2022/04/30 05:39:36;;;;;;;31.80;21.20;;;;;;;11.39;73.57;101247.34;4129044;28;20072;-69
2022/04/30 05:41:57;;;;;;;27.65;19.95;;;;;;;11.34;73.62;101241.13;4117795;28;20065;-69
2022/04/30 05:44:18;;;;;;;31.58;22.13;;;;;;;11.37;74.17;101243.78;4116410;28;20117;-69
2022/04/30 05:46:40;;;;;;;21.15;16.58;;;;;;;11.26;73.83;101250.50;4117148;28;20045;-69
2022/04/30 05:49:03;;;;;;;20.92;16.50;;;;;;;11.27;74.38;101247.94;4117624;28;20054;-69
2022/04/30 05:51:25;;;;;;;28.05;20.13;;;;;;;11.30;73.71;101250.59;4110590;28;20070;-68
2022/04/30 05:53:46;;;;;;;25.00;20.70;;;;;;;11.55;73.39;101247.69;4116654;28;20057;-69
2022/04/30 05:56:08;;;;;;;29.83;21.75;;;;;;;11.33;73.68;101247.16;4113898;28;20058;-69
2022/04/30 05:58:29;;;;;;;25.45;20.05;;;;;;;11.18;74.62;101251.19;4111376;28;20125;-70
2022/04/30 06:00:51;;;;;;;24.60;20.33;;;;;;;11.20;74.37;101246.00;4113358;28;20418;-69
2022/04/30 06:03:12;;;;;;;28.25;20.25;;;;;;;11.14;73.57;101246.75;4116921;28;20097;-69
2022/04/30 06:05:37;;;;;;;27.30;20.90;;;;;;;11.01;75.16;101255.09;4110471;28;20134;-70
2022/04/30 06:07:59;;;;;;;26.13;20.17;;;;;;;11.06;75.56;101253.47;4116675;28;20089;-69
2022/04/30 06:10:20;;;;;;;22.75;19.08;;;;;;;11.06;74.10;101261.28;4114673;28;20105;-68
2022/04/30 06:12:42;;;;;;;30.13;20.98;;;;;;;11.12;74.27;101247.53;4112011;28;20053;-69
2022/04/30 06:15:04;;;;;;;29.95;19.63;;;;;;;11.07;74.10;101255.25;4115799;28;20545;-69
2022/04/30 06:17:26;;;;;;;29.63;22.40;;;;;;;11.13;74.83;101263.19;4112947;28;20045;-70
2022/04/30 06:19:52;;;;;;;26.42;22.13;;;;;;;11.08;74.92;101254.41;4112841;28;20045;-69
2022/04/30 06:22:16;;;;;;;31.13;22.42;;;;;;;11.11;74.05;101264.88;4113183;28;20046;-70
2022/04/30 06:24:37;;;;;;;29.42;21.50;;;;;;;11.16;74.25;101265.88;4109262;28;20053;-69
2022/04/30 06:26:59;;;;;;;29.73;21.02;;;;;;;11.09;74.32;101274.34;4115816;28;20078;-74
2022/04/30 06:29:22;;;;;;;26.17;20.45;;;;;;;10.99;74.53;101265.47;4115604;28;20109;-68
2022/04/30 06:31:44;;;;;;;27.25;21.67;;;;;;;10.97;75.10;101271.47;4110408;28;20101;-68
2022/04/30 06:34:05;;;;;;;23.52;18.30;;;;;;;10.94;75.57;101271.38;4116621;28;20501;-66
2022/04/30 06:36:28;;;;;;;24.40;21.70;;;;;;;11.21;74.12;101262.50;4116640;28;20093;-68
2022/04/30 06:38:52;;;;;;;24.40;20.23;;;;;;;11.04;74.53;101277.69;4112137;28;20410;-64
2022/04/30 06:41:13;;;;;;;23.90;20.60;;;;;;;11.10;75.12;101280.47;4115633;28;20049;-67
2022/04/30 06:43:34;;;;;;;24.40;20.48;;;;;;;10.95;75.21;101280.94;4117356;28;20462;-66
2022/04/30 06:45:56;;;;;;;23.05;20.58;;;;;;;11.09;75.23;101283.91;4112775;28;20085;-66
2022/04/30 06:48:17;;;;;;;25.42;20.60;;;;;;;11.16;75.20;101285.81;4117096;28;20061;-68
2022/04/30 06:50:38;;;;;;;27.67;21.50;;;;;;;11.11;75.11;101284.81;4115100;28;20092;-68
2022/04/30 06:58:19;;;;;;;26.88;21.42;;;;;;;11.02;74.72;101295.00;4108384;28;20560;-68
2022/04/30 07:03:23;;;;;;;24.98;19.58;;;;;;;11.03;74.71;101304.56;4112546;28;20070;-67
2022/04/30 07:05:46;;;;;;;26.15;20.23;;;;;;;10.96;75.54;101304.38;4114981;28;20077;-68
2022/04/30 07:08:08;;;;;;;29.83;22.23;;;;;;;10.97;74.80;101300.94;4112876;28;20110;-72
2022/04/30 07:10:30;;;;;;;24.48;20.70;;;;;;;11.05;74.90;101302.88;4109779;28;20409;-72
2022/04/30 07:12:52;;;;;;;26.10;21.25;;;;;;;11.10;74.18;101296.94;4111596;28;20053;-73
2022/04/30 07:15:14;;;;;;;25.70;22.25;;;;;;;10.97;74.71;101302.69;4114569;28;20061;-72
2022/04/30 07:17:36;;;;;;;28.33;21.30;;;;;;;10.98;74.77;101294.00;4114465;28;20093;-68
2022/04/30 07:19:58;;;;;;;24.52;20.52;;;;;;;10.90;75.25;101306.81;4113563;28;20053;-70
2022/04/30 07:22:19;;;;;;;29.20;23.17;;;;;;;11.06;75.26;101304.66;4115671;28;20084;-70
2022/04/30 07:24:40;;;;;;;29.67;23.45;;;;;;;11.07;75.27;101307.28;4117224;28;20105;-69
2022/04/30 07:27:04;;;;;;;22.50;19.88;;;;;;;10.99;76.17;101299.28;4115949;28;20105;-69
2022/04/30 07:29:27;;;;;;;29.95;23.48;;;;;;;11.11;75.55;101303.91;4108257;28;20422;-71
2022/04/30 07:31:49;;;;;;;26.98;21.65;;;;;;;11.20;74.96;101308.47;4112151;28;20048;-69
2022/04/30 07:34:11;;;;;;;23.77;21.20;;;;;;;11.08;74.82;101302.94;4114981;28;20389;-69
2022/04/30 07:36:33;;;;;;;28.77;22.95;;;;;;;11.15;74.47;101300.53;4105297;28;20062;-68
2022/04/30 07:38:55;;;;;;;30.58;22.02;;;;;;;11.16;74.65;101306.63;4112713;28;20131;-61
2022/04/30 07:41:16;;;;;;;29.25;22.92;;;;;;;11.04;74.94;101307.22;4115467;28;20462;-65
2022/04/30 07:43:38;;;;;;;24.42;20.17;;;;;;;10.93;75.08;101306.03;4114101;28;20129;-62
2022/04/30 07:46:01;;;;;;;28.85;21.92;;;;;;;11.01;74.92;101312.34;4112335;28;20143;-61
2022/04/30 07:48:28;;;;;;;23.65;21.02;;;;;;;11.13;74.23;101317.84;4113674;28;20053;-65
2022/04/30 07:50:51;;;;;;;29.55;22.67;;;;;;;11.19;73.93;101311.91;4111322;28;20057;-68
2022/04/30 07:53:14;;;;;;;25.13;21.48;;;;;;;11.00;73.87;101315.75;4114800;28;20077;-64
2022/04/30 07:55:36;;;;;;;28.35;23.10;;;;;;;10.96;74.45;101320.00;4115982;28;20433;-65
2022/04/30 07:57:58;;;;;;;25.60;22.27;;;;;;;10.86;75.28;101327.53;4115775;28;20803;-70
2022/04/30 08:00:20;;;;;;;27.17;23.67;;;;;;;10.97;75.07;101328.69;4111383;28;20065;-60
2022/04/30 08:02:42;;;;;;;27.27;22.95;;;;;;;10.95;74.65;101320.84;4112986;28;20051;-59
2022/04/30 08:05:05;;;;;;;24.40;20.77;;;;;;;11.11;73.55;101327.34;4110924;28;20061;-59
2022/04/30 08:07:27;;;;;;;28.40;23.80;;;;;;;11.03;74.73;101320.19;4109620;28;20069;-58
2022/04/30 08:09:48;;;;;;;25.10;20.77;;;;;;;10.95;74.84;101330.34;4114294;28;20105;-58
2022/04/30 08:12:11;;;;;;;25.30;21.38;;;;;;;11.11;74.12;101332.56;4112097;28;20058;-57
2022/04/30 08:14:32;;;;;;;26.75;22.67;;;;;;;11.11;73.61;101335.16;4109343;28;20151;-58
2022/04/30 08:16:54;;;;;;;26.10;21.15;;;;;;;11.08;74.00;101335.06;4108833;28;20526;-57
2022/04/30 08:19:17;;;;;;;30.67;24.58;;;;;;;11.13;73.46;101335.19;4115121;28;20058;-58
2022/04/30 08:21:39;;;;;;;25.92;21.52;;;;;;;11.04;74.17;101333.22;4111917;28;20054;-58
2022/04/30 08:24:20;;;;;;;26.15;20.80;;;;;;;11.16;73.08;101330.94;4109616;28;20597;-58
2022/04/30 08:26:43;;;;;;;24.70;21.65;;;;;;;11.09;74.12;101334.22;4112219;28;20101;-59
2022/04/30 08:29:04;;;;;;;32.88;25.77;;;;;;;11.20;74.06;101329.31;4111117;28;20580;-58
2022/04/30 08:31:26;;;;;;;30.58;23.65;;;;;;;11.39;73.67;101338.47;4110470;28;20085;-58
2022/04/30 08:33:48;;;;;;;25.38;21.92;;;;;;;11.28;73.68;101332.09;4111763;28;20077;-57
2022/04/30 08:36:11;;;;;;;26.65;21.75;;;;;;;11.22;73.88;101337.16;4115196;28;20065;-57
2022/04/30 08:38:33;;;;;;;24.08;21.23;;;;;;;11.23;71.81;101344.09;4112930;28;20073;-55
2022/04/30 08:40:55;;;;;;;22.70;20.13;;;;;;;11.11;72.24;101344.66;4110550;28;20552;-57
2022/04/30 08:43:17;;;;;;;22.65;19.98;;;;;;;11.09;72.82;101335.94;4113464;28;20536;-58
2022/04/30 08:45:40;;;;;;;24.42;20.02;;;;;;;10.94;72.76;101337.28;4111837;28;20130;-57
2022/04/30 08:48:02;;;;;;;22.65;19.17;;;;;;;10.96;73.25;101340.81;4112021;28;20058;-56
2022/04/30 08:50:23;;;;;;;20.63;17.05;;;;;;;11.01;72.13;101348.75;4113787;28;20475;-57
2022/04/30 08:52:46;;;;;;;25.05;18.42;;;;;;;11.02;72.34;101342.69;4108279;28;20093;-57
2022/04/30 08:55:10;;;;;;;22.10;18.13;;;;;;;11.06;71.80;101336.75;4112851;28;20121;-57
2022/04/30 08:57:31;;;;;;;20.77;18.55;;;;;;;10.83;72.96;101347.41;4112992;28;20052;-57
2022/04/30 08:59:52;;;;;;;25.83;20.38;;;;;;;10.99;73.03;101350.41;4104941;28;20203;-57
2022/04/30 09:02:14;;;;;;;22.30;18.63;;;;;;;10.83;73.43;101342.22;4097767;28;20409;-58
2022/04/30 09:04:43;;;;;;;20.88;17.02;;;;;;;10.82;73.69;101347.38;4098298;29;20054;-56
2022/04/30 09:07:12;;;;;;;21.65;18.30;;;;;;;10.86;74.21;101348.34;4093173;28;20069;-57
2022/04/30 09:09:35;;;;;;;26.92;22.65;;;;;;;11.00;73.34;101347.84;4122436;28;20084;-58
2022/04/30 09:12:09;;;;;;;25.55;19.95;;;;;;;11.08;72.89;101339.38;4103681;28;20204;-59
2022/04/30 09:14:31;;;;;;;24.90;19.45;;;;;;;10.91;72.58;101339.81;4117342;28;20092;-59
2022/04/30 09:17:04;;;;;;;20.70;17.75;;;;;;;11.05;71.94;101340.16;4096003;29;20058;-59
2022/04/30 09:19:26;;;;;;;20.33;17.92;;;;;;;10.87;72.64;101340.56;4092657;28;20093;-60
2022/04/30 09:21:49;;;;;;;21.15;17.63;;;;;;;10.91;73.90;101345.03;4094160;28;20074;-59
2022/04/30 09:24:13;;;;;;;20.88;17.90;;;;;;;11.07;72.32;101332.41;4096793;28;20478;-58
2022/04/30 09:26:43;;;;;;;21.27;17.90;;;;;;;11.11;72.42;101339.47;4121336;28;20045;-58
2022/04/30 09:29:22;;;;;;;21.13;17.80;;;;;;;11.18;72.27;101346.59;4094216;29;20533;-58
2022/04/30 09:31:51;;;;;;;21.05;16.98;;;;;;;11.03;72.01;101334.06;4094916;29;20053;-60
2022/04/30 09:39:20;;;;;;;23.25;19.42;;;;;;;10.85;73.55;101341.34;4095993;29;20035;-58
2022/04/30 09:41:24;;;;;;;23.33;18.15;;;;;;;10.95;73.57;101344.28;4096763;28;20071;-59
2022/04/30 09:43:34;;;;;;;21.73;18.38;;;;;;;10.97;73.47;101341.72;4095536;28;20134;-58
2022/04/30 09:45:39;;;;;;;23.98;18.55;;;;;;;10.90;74.26;101339.78;4096919;29;20134;-58
2022/04/30 09:47:43;;;;;;;22.33;17.02;;;;;;;10.92;73.68;101344.19;4096441;29;20047;-60
2022/04/30 09:54:28;;;;;;;20.90;18.52;;;;;;;11.05;72.92;101345.38;4095858;29;20481;-58
2022/04/30 09:56:36;;;;;;;21.45;17.50;;;;;;;11.08;73.28;101342.88;4093398;28;20050;-57
2022/04/30 09:58:43;;;;;;;22.45;18.02;;;;;;;11.17;71.22;101343.13;4110672;28;20070;-57
2022/04/30 10:00:46;;;;;;;22.58;18.40;;;;;;;11.09;72.18;101342.03;4094290;28;20035;-58
2022/04/30 10:02:58;;;;;;;21.88;17.77;;;;;;;11.07;72.54;101340.22;4092281;28;20067;-57
2022/04/30 10:05:03;;;;;;;24.20;17.52;;;;;;;11.14;70.93;101347.34;4096870;29;20043;-59
2022/04/30 10:07:07;;;;;;;20.10;17.27;;;;;;;11.07;71.53;101355.81;4097513;28;20130;-59
2022/04/30 10:09:12;;;;;;;23.38;17.98;;;;;;;10.96;71.22;101347.75;4096932;29;20046;-58
2022/04/30 10:11:26;;;;;;;21.13;17.45;;;;;;;10.86;71.67;101346.59;4095243;29;20395;-58
2022/04/30 10:13:41;;;;;;;21.80;16.48;;;;;;;10.90;72.40;101350.19;4093655;28;20421;-58
2022/04/30 10:15:51;;;;;;;23.83;18.23;;;;;;;10.90;72.18;101339.78;4125332;28;20141;-64
2022/04/30 10:17:57;;;;;;;20.50;17.83;;;;;;;10.82;72.76;101342.19;4114420;28;20158;-58
2022/04/30 10:20:05;;;;;;;22.10;17.92;;;;;;;10.79;73.00;101340.38;4114508;28;20058;-58
2022/04/30 10:22:18;;;;;;;26.73;18.67;;;;;;;10.80;72.65;101342.09;4114384;28;20066;-58
2022/04/30 10:24:22;;;;;;;20.45;17.60;;;;;;;10.77;73.92;101342.03;4111971;28;20510;-61
2022/04/30 10:26:25;;;;;;;20.45;18.20;;;;;;;10.78;74.37;101336.00;4113921;28;20474;-62
2022/04/30 10:28:28;;;;;;;23.90;17.98;;;;;;;11.02;73.73;101340.09;4113571;28;20043;-60
2022/04/30 10:30:31;;;;;;;24.23;19.52;;;;;;;10.98;73.42;101346.03;4114461;28;20122;-61
2022/04/30 10:32:37;;;;;;;20.17;18.00;;;;;;;10.97;72.36;101344.31;4112609;28;20054;-66
2022/04/30 10:34:40;;;;;;;23.00;18.67;;;;;;;10.88;72.54;101342.34;4112107;28;20042;-62
2022/04/30 10:36:43;;;;;;;22.02;17.48;;;;;;;10.79;73.44;101342.97;4112110;28;20066;-59
2022/04/30 10:38:55;;;;;;;21.50;17.60;;;;;;;10.83;73.94;101341.31;4128980;28;20133;-59
2022/04/30 10:40:59;;;;;;;20.40;17.48;;;;;;;10.78;73.89;101332.53;4115920;28;20038;-60
2022/04/30 10:43:02;;;;;;;22.58;17.98;;;;;;;10.73;73.68;101335.00;4117018;28;20049;-59
2022/04/30 10:45:07;;;;;;;22.50;17.42;;;;;;;10.85;74.13;101338.75;4124375;28;20486;-59
2022/04/30 10:47:12;;;;;;;21.63;16.70;;;;;;;10.79;73.92;101337.78;4116320;28;20383;-59
2022/04/30 10:49:16;;;;;;;21.70;17.02;;;;;;;10.79;74.20;101340.38;4117149;28;20066;-59
2022/04/30 10:51:34;;;;;;;21.40;15.43;;;;;;;10.75;74.20;101333.31;4115912;28;20042;-59
2022/04/30 10:53:40;;;;;;;22.15;16.23;;;;;;;10.75;74.31;101340.25;4115988;28;20549;-59
2022/04/30 10:55:44;;;;;;;20.50;16.67;;;;;;;10.70;74.63;101334.03;4117007;28;20066;-59
2022/04/30 10:57:47;;;;;;;16.70;13.80;;;;;;;10.67;74.20;101334.81;4116962;28;20379;-59
2022/04/30 10:59:58;;;;;;;17.63;15.45;;;;;;;10.69;73.88;101332.25;4116637;28;20038;-59
2022/04/30 11:02:01;;;;;;;19.17;16.48;;;;;;;10.66;74.91;101330.47;4115777;28;20058;-59
2022/04/30 11:04:05;;;;;;;20.98;16.13;;;;;;;10.66;75.01;101330.47;4131814;28;20429;-59
2022/04/30 11:06:10;;;;;;;20.55;15.98;;;;;;;10.71;75.14;101331.47;4116989;28;20046;-59